createdAt,value
2016-11-27T00:00:54.023Z,0
2016-11-27T00:01:54.103Z,0
2016-11-27T00:02:54.062Z,0
2016-11-27T00:03:54.089Z,0
2016-11-27T00:04:54.094Z,0
2016-11-27T00:05:54.117Z,0
2016-11-27T00:06:54.183Z,0
2016-11-27T00:07:54.149Z,0
2016-11-27T00:08:54.162Z,0
2016-11-27T00:10:09.107Z,0
2016-11-27T00:11:09.122Z,0
2016-11-27T00:11:54.216Z,0
2016-11-27T00:12:54.237Z,0
2016-11-27T00:13:54.254Z,0
2016-11-27T00:14:54.274Z,0
2016-11-27T00:15:54.339Z,0
2016-11-27T00:17:54.330Z,0
2016-11-27T00:18:54.351Z,0
2016-11-27T00:19:54.384Z,0
2016-11-27T00:20:54.371Z,0
2016-11-27T00:21:54.394Z,0
2016-11-27T00:22:54.414Z,0
2016-11-27T00:23:54.426Z,0
2016-11-27T00:25:09.418Z,0
2016-11-27T00:25:54.458Z,0
2016-11-27T00:26:54.481Z,0
2016-11-27T00:28:09.418Z,0
2016-11-27T00:28:54.516Z,0
2016-11-27T00:30:09.449Z,0
2016-11-27T00:30:54.547Z,0
2016-11-27T00:31:54.571Z,0
2016-11-27T00:32:54.587Z,0
2016-11-27T00:33:54.604Z,0
2016-11-27T00:34:54.619Z,0
2016-11-27T00:35:54.638Z,0
2016-11-27T00:36:54.661Z,0
2016-11-27T00:37:54.696Z,0
2016-11-27T00:39:09.615Z,0
2016-11-27T00:40:09.665Z,0
2016-11-27T00:40:54.729Z,0
2016-11-27T00:42:09.663Z,0
2016-11-27T00:43:09.679Z,0
2016-11-27T00:43:54.779Z,0
2016-11-27T00:44:54.796Z,0
2016-11-27T00:45:54.813Z,0
2016-11-27T00:46:54.837Z,0
2016-11-27T00:47:54.845Z,0
2016-11-27T00:49:54.881Z,0
2016-11-27T00:50:54.900Z,0
2016-11-27T00:51:54.913Z,0
2016-11-27T00:52:54.931Z,0
2016-11-27T00:53:54.950Z,0
2016-11-27T00:54:54.966Z,0
2016-11-27T00:55:54.990Z,0
2016-11-27T00:56:55.006Z,0
2016-11-27T00:58:09.945Z,0
2016-11-27T00:58:55.042Z,0
2016-11-27T01:00:09.978Z,0
2016-11-27T01:00:55.074Z,0
2016-11-27T01:01:55.095Z,0
2016-11-27T01:02:55.109Z,0
2016-11-27T01:03:55.130Z,0
2016-11-27T01:07:55.201Z,0
2016-11-27T01:09:10.142Z,0
2016-11-27T01:09:55.231Z,0
2016-11-27T01:10:55.252Z,0
2016-11-27T01:12:10.192Z,0
2016-11-27T01:12:55.289Z,0
2016-11-27T01:14:10.230Z,0
2016-11-27T01:15:10.239Z,0
2016-11-27T01:15:55.332Z,0
2016-11-27T01:17:55.373Z,0
2016-11-27T01:18:55.387Z,0
2016-11-27T01:19:55.412Z,0
2016-11-27T01:21:55.449Z,0
2016-11-27T01:22:55.466Z,0
2016-11-27T01:23:55.477Z,0
2016-11-27T01:24:55.496Z,0
2016-11-27T01:25:55.511Z,0
2016-11-27T01:26:55.533Z,0
2016-11-27T01:28:55.571Z,0
2016-11-27T01:30:10.506Z,0
2016-11-27T01:30:55.638Z,0
2016-11-27T01:31:55.631Z,0
2016-11-27T01:33:10.568Z,0
2016-11-27T01:33:55.667Z,0
2016-11-27T01:34:55.681Z,0
2016-11-27T01:35:55.693Z,0
2016-11-27T01:36:55.706Z,0
2016-11-27T01:37:55.726Z,0
2016-11-27T01:38:55.752Z,0
2016-11-27T01:40:55.788Z,0
2016-11-27T01:41:55.799Z,0
2016-11-27T01:42:55.815Z,0
2016-11-27T01:44:10.760Z,0
2016-11-27T01:45:10.779Z,0
2016-11-27T01:46:10.792Z,0
2016-11-27T01:46:55.887Z,0
2016-11-27T01:47:55.909Z,0
2016-11-27T01:48:55.926Z,0
2016-11-27T01:49:56.001Z,0
2016-11-27T01:51:55.984Z,0
2016-11-27T01:52:55.997Z,0
2016-11-27T01:53:56.009Z,0
2016-11-27T01:54:56.032Z,0
2016-11-27T01:55:56.051Z,0
2016-11-27T01:56:56.070Z,0
2016-11-27T01:57:56.087Z,0
2016-11-27T01:58:56.103Z,0
2016-11-27T01:59:56.126Z,0
2016-11-27T02:00:56.151Z,0
2016-11-27T02:01:56.472Z,0
2016-11-27T02:03:11.114Z,0
2016-11-27T02:03:56.193Z,0
2016-11-27T02:05:11.147Z,0
2016-11-27T02:05:56.232Z,0
2016-11-27T02:08:56.295Z,0
2016-11-27T02:09:56.301Z,0
2016-11-27T02:10:56.323Z,0
2016-11-27T02:11:56.333Z,0
2016-11-27T02:12:56.356Z,0
2016-11-27T02:14:11.301Z,0
2016-11-27T02:14:56.387Z,0
2016-11-27T02:15:56.415Z,0
2016-11-27T02:17:11.356Z,0
2016-11-27T02:17:56.444Z,0
2016-11-27T02:18:56.468Z,0
2016-11-27T02:19:56.487Z,0
2016-11-27T02:20:56.805Z,0
2016-11-27T02:21:56.519Z,0
2016-11-27T02:22:56.541Z,0
2016-11-27T02:23:56.556Z,0
2016-11-27T02:24:56.575Z,0
2016-11-27T02:25:56.589Z,0
2016-11-27T02:26:56.621Z,0
2016-11-27T02:27:56.627Z,0
2016-11-27T02:28:56.642Z,0
2016-11-27T02:29:56.659Z,0
2016-11-27T02:30:56.677Z,0
2016-11-27T02:31:56.706Z,0
2016-11-27T02:33:11.641Z,0
2016-11-27T02:33:56.737Z,0
2016-11-27T02:34:56.748Z,0
2016-11-27T02:35:56.767Z,0
2016-11-27T02:36:56.838Z,0
2016-11-27T02:37:56.814Z,0
2016-11-27T02:38:56.831Z,0
2016-11-27T02:39:56.849Z,0
2016-11-27T02:40:56.852Z,0
2016-11-27T02:41:56.879Z,0
2016-11-27T02:42:56.900Z,0
2016-11-27T02:43:56.914Z,0
2016-11-27T02:44:56.938Z,0
2016-11-27T02:46:56.969Z,0
2016-11-27T02:47:56.986Z,0
2016-11-27T02:49:57.028Z,0
2016-11-27T02:51:57.062Z,0
2016-11-27T02:52:57.087Z,0
2016-11-27T02:53:57.095Z,0
2016-11-27T02:55:57.134Z,0
2016-11-27T02:56:57.155Z,0
2016-11-27T02:57:57.161Z,0
2016-11-27T02:58:57.190Z,0
2016-11-27T03:00:12.132Z,0
2016-11-27T03:00:57.223Z,0
2016-11-27T03:02:12.167Z,0
2016-11-27T03:02:57.259Z,0
2016-11-27T03:03:57.274Z,0
2016-11-27T03:05:12.217Z,0
2016-11-27T03:05:57.311Z,0
2016-11-27T03:06:57.335Z,0
2016-11-27T03:07:57.350Z,0
2016-11-27T03:08:57.367Z,0
2016-11-27T03:09:57.401Z,0
2016-11-27T03:10:57.402Z,0
2016-11-27T03:11:57.419Z,0
2016-11-27T03:12:57.440Z,0
2016-11-27T03:13:57.459Z,0
2016-11-27T03:14:57.786Z,0
2016-11-27T03:15:57.507Z,0
2016-11-27T03:16:57.519Z,0
2016-11-27T03:17:57.531Z,0
2016-11-27T03:19:12.472Z,0
2016-11-27T03:20:12.494Z,0
2016-11-27T03:20:57.593Z,0
2016-11-27T03:21:57.610Z,0
2016-11-27T03:22:57.924Z,0
2016-11-27T03:23:57.644Z,0
2016-11-27T03:24:57.692Z,0
2016-11-27T03:25:57.675Z,0
2016-11-27T03:26:57.698Z,0
2016-11-27T03:27:57.718Z,0
2016-11-27T03:28:57.736Z,0
2016-11-27T03:29:57.750Z,0
2016-11-27T03:30:57.774Z,0
2016-11-27T03:31:57.792Z,0
2016-11-27T03:32:57.857Z,0
2016-11-27T03:33:57.834Z,0
2016-11-27T03:34:58.192Z,0
2016-11-27T03:36:12.787Z,0
2016-11-27T03:36:57.882Z,0
2016-11-27T03:37:57.902Z,0
2016-11-27T03:38:57.917Z,0
2016-11-27T03:40:12.852Z,0
2016-11-27T03:40:57.956Z,0
2016-11-27T03:41:57.972Z,0
2016-11-27T03:42:57.998Z,0
2016-11-27T03:43:58.008Z,0
2016-11-27T03:44:58.030Z,0
2016-11-27T03:45:58.048Z,0
2016-11-27T03:47:12.992Z,0
2016-11-27T03:48:58.103Z,0
2016-11-27T03:50:13.042Z,0
2016-11-27T03:51:13.061Z,0
2016-11-27T03:52:13.088Z,0
2016-11-27T03:53:13.095Z,0
2016-11-27T03:53:58.195Z,0
2016-11-27T03:54:58.217Z,0
2016-11-27T03:56:13.146Z,0
2016-11-27T03:56:58.252Z,0
2016-11-27T03:57:58.259Z,0
2016-11-27T03:58:58.289Z,0
2016-11-27T03:59:58.356Z,0
2016-11-27T04:00:58.323Z,0
2016-11-27T04:01:58.346Z,0
2016-11-27T04:02:58.359Z,0
2016-11-27T04:04:58.388Z,0
2016-11-27T04:05:58.412Z,0
2016-11-27T04:07:13.355Z,0
2016-11-27T04:08:13.369Z,0
2016-11-27T04:09:13.385Z,0
2016-11-27T04:10:13.408Z,0
2016-11-27T04:10:58.506Z,0
2016-11-27T04:11:58.521Z,0
2016-11-27T04:12:58.536Z,0
2016-11-27T04:13:58.563Z,0
2016-11-27T04:14:58.579Z,0
2016-11-27T04:15:58.593Z,0
2016-11-27T04:16:58.913Z,0
2016-11-27T04:18:58.648Z,0
2016-11-27T04:19:58.677Z,0
2016-11-27T04:20:58.692Z,0
2016-11-27T04:21:58.708Z,0
2016-11-27T04:22:58.724Z,0
2016-11-27T04:24:13.660Z,0
2016-11-27T04:25:13.683Z,0
2016-11-27T04:25:58.782Z,0
2016-11-27T04:26:58.828Z,0
2016-11-27T04:28:58.830Z,0
2016-11-27T04:29:58.865Z,0
2016-11-27T04:31:13.803Z,0
2016-11-27T04:31:58.886Z,0
2016-11-27T04:32:58.904Z,0
2016-11-27T04:33:59.222Z,0
2016-11-27T04:34:58.940Z,0
2016-11-27T04:35:58.960Z,0
2016-11-27T04:37:13.907Z,0
2016-11-27T04:38:13.920Z,0
2016-11-27T04:38:59.013Z,0
2016-11-27T04:40:13.962Z,0
2016-11-27T04:40:59.058Z,0
2016-11-27T04:41:59.073Z,0
2016-11-27T04:42:59.152Z,0
2016-11-27T04:44:59.133Z,0
2016-11-27T04:45:59.149Z,0
2016-11-27T04:46:59.163Z,0
2016-11-27T04:47:59.183Z,0
2016-11-27T04:48:59.197Z,0
2016-11-27T04:49:59.217Z,0
2016-11-27T04:50:59.239Z,0
2016-11-27T04:52:14.181Z,0
2016-11-27T04:53:14.514Z,0
2016-11-27T04:53:59.320Z,0
2016-11-27T04:55:14.236Z,0
2016-11-27T04:55:59.328Z,0
2016-11-27T04:56:59.349Z,0
2016-11-27T04:57:59.673Z,0
2016-11-27T04:58:59.438Z,0
2016-11-27T04:59:59.400Z,0
2016-11-27T05:00:59.417Z,0
2016-11-27T05:01:59.437Z,0
2016-11-27T05:03:59.480Z,0
2016-11-27T05:04:59.496Z,0
2016-11-27T05:05:59.512Z,0
2016-11-27T05:06:59.526Z,0
2016-11-27T05:07:59.547Z,0
2016-11-27T05:08:59.574Z,0
2016-11-27T05:09:59.585Z,0
2016-11-27T05:10:59.614Z,0
2016-11-27T05:11:59.612Z,0
2016-11-27T05:12:59.642Z,0
2016-11-27T05:13:59.660Z,0
2016-11-27T05:14:59.673Z,0
2016-11-27T05:15:59.696Z,0
2016-11-27T05:16:59.707Z,0
2016-11-27T05:17:59.729Z,0
2016-11-27T05:18:59.744Z,0
2016-11-27T05:20:59.775Z,0
2016-11-27T05:21:59.797Z,0
2016-11-27T05:22:59.826Z,0
2016-11-27T05:24:00.035Z,0
2016-11-27T05:24:59.853Z,0
2016-11-27T05:26:14.796Z,0
2016-11-27T05:27:14.816Z,0
2016-11-27T05:27:59.905Z,0
2016-11-27T05:28:59.982Z,0
2016-11-27T05:30:14.868Z,0
2016-11-27T05:30:59.965Z,0
2016-11-27T05:31:59.979Z,0
2016-11-27T05:33:00.104Z,0
2016-11-27T05:34:00.024Z,0
2016-11-27T05:37:00.066Z,0
2016-11-27T05:38:00.081Z,0
2016-11-27T05:39:00.103Z,0
2016-11-27T05:40:00.119Z,0
2016-11-27T05:41:00.134Z,0
2016-11-27T05:42:00.155Z,0
2016-11-27T05:43:15.101Z,0
2016-11-27T05:44:15.118Z,0
2016-11-27T05:45:00.218Z,0
2016-11-27T05:46:00.235Z,0
2016-11-27T05:47:00.250Z,0
2016-11-27T05:48:00.568Z,0
2016-11-27T05:49:00.281Z,0
2016-11-27T05:50:00.303Z,0
2016-11-27T05:51:00.324Z,0
2016-11-27T05:52:00.365Z,0
2016-11-27T05:53:00.354Z,0
2016-11-27T05:54:00.370Z,0
2016-11-27T05:55:00.389Z,0
2016-11-27T05:56:00.405Z,0
2016-11-27T05:57:00.429Z,0
2016-11-27T05:58:00.447Z,0
2016-11-27T05:59:15.390Z,0
2016-11-27T06:00:00.786Z,0
2016-11-27T06:01:00.499Z,0
2016-11-27T06:02:00.520Z,0
2016-11-27T06:03:00.532Z,0
2016-11-27T06:04:00.561Z,0
2016-11-27T06:06:00.587Z,4
2016-11-27T06:08:00.617Z,0
2016-11-27T06:09:00.644Z,0
2016-11-27T06:10:00.662Z,4
2016-11-27T06:11:00.682Z,4
2016-11-27T06:12:00.696Z,4
2016-11-27T06:13:15.634Z,4
2016-11-27T06:14:15.654Z,8
2016-11-27T06:15:15.666Z,8
2016-11-27T06:16:00.815Z,8
2016-11-27T06:17:00.793Z,8
2016-11-27T06:18:00.802Z,12
2016-11-27T06:20:00.837Z,12
2016-11-27T06:21:00.887Z,16
2016-11-27T06:22:00.877Z,20
2016-11-27T06:23:00.885Z,24
2016-11-27T06:24:15.840Z,24
2016-11-27T06:25:00.922Z,32
2016-11-27T06:26:01.245Z,36
2016-11-27T06:27:00.962Z,40
2016-11-27T06:28:01.010Z,48
2016-11-27T06:29:00.995Z,56
2016-11-27T06:30:15.937Z,60
2016-11-27T06:31:15.955Z,72
2016-11-27T06:32:01.082Z,76
2016-11-27T06:33:15.988Z,88
2016-11-27T06:35:01.096Z,112
2016-11-27T06:36:01.125Z,124
2016-11-27T06:37:16.076Z,148
2016-11-27T06:38:01.155Z,156
2016-11-27T06:39:01.170Z,176
2016-11-27T06:40:01.198Z,192
2016-11-27T06:41:01.210Z,208
2016-11-27T06:42:01.223Z,228
2016-11-27T06:43:01.248Z,248
2016-11-27T06:44:01.262Z,268
2016-11-27T06:45:01.275Z,288
2016-11-27T06:46:01.312Z,308
2016-11-27T06:48:01.335Z,356
2016-11-27T06:49:01.354Z,380
2016-11-27T06:50:01.368Z,408
2016-11-27T06:51:01.389Z,432
2016-11-27T06:52:01.400Z,464
2016-11-27T06:53:16.352Z,500
2016-11-27T06:54:01.471Z,520
2016-11-27T06:55:01.457Z,556
2016-11-27T06:56:01.476Z,588
2016-11-27T06:57:01.487Z,624
2016-11-27T06:58:01.509Z,664
2016-11-27T06:59:01.531Z,700
2016-11-27T07:00:01.546Z,740
2016-11-27T07:01:16.487Z,796
2016-11-27T07:02:16.498Z,840
2016-11-27T07:03:01.612Z,876
2016-11-27T07:04:01.693Z,928
2016-11-27T07:05:01.636Z,968
2016-11-27T07:06:01.653Z,1016
2016-11-27T07:08:01.680Z,1108
2016-11-27T07:09:01.703Z,1144
2016-11-27T07:10:01.713Z,1176
2016-11-27T07:11:01.738Z,1204
2016-11-27T07:12:01.751Z,1240
2016-11-27T07:13:01.772Z,1288
2016-11-27T07:14:01.796Z,1360
2016-11-27T07:15:16.733Z,1452
2016-11-27T07:16:01.824Z,1500
2016-11-27T07:17:01.847Z,1512
2016-11-27T07:18:16.781Z,1296
2016-11-27T07:19:16.798Z,1108
2016-11-27T07:20:01.899Z,996
2016-11-27T07:21:01.920Z,884
2016-11-27T07:22:01.932Z,820
2016-11-27T07:23:01.950Z,764
2016-11-27T07:24:01.965Z,752
2016-11-27T07:25:02.010Z,772
2016-11-27T07:26:02.011Z,792
2016-11-27T07:27:02.117Z,808
2016-11-27T07:28:02.043Z,844
2016-11-27T07:29:02.055Z,888
2016-11-27T07:30:02.076Z,936
2016-11-27T07:31:02.091Z,992
2016-11-27T07:32:02.111Z,1056
2016-11-27T07:33:17.049Z,1148
2016-11-27T07:34:17.063Z,1228
2016-11-27T07:35:02.161Z,1276
2016-11-27T07:36:02.182Z,1368
2016-11-27T07:37:02.198Z,1516
2016-11-27T07:38:02.220Z,1716
2016-11-27T07:39:02.238Z,1872
2016-11-27T07:40:02.259Z,2040
2016-11-27T07:41:02.278Z,2092
2016-11-27T07:42:02.287Z,1936
2016-11-27T07:43:02.304Z,1768
2016-11-27T07:44:02.326Z,1740
2016-11-27T07:45:02.344Z,1648
2016-11-27T07:46:02.359Z,1612
2016-11-27T07:47:02.420Z,1784
2016-11-27T07:48:02.391Z,1916
2016-11-27T07:50:17.355Z,2056
2016-11-27T07:52:02.517Z,2484
2016-11-27T07:53:02.484Z,2776
2016-11-27T07:54:02.497Z,2964
2016-11-27T07:55:02.529Z,3112
2016-11-27T07:56:02.543Z,3296
2016-11-27T07:57:02.611Z,3476
2016-11-27T07:58:02.578Z,3796
2016-11-27T07:59:02.591Z,3912
2016-11-27T08:00:02.612Z,4136
2016-11-27T08:01:17.553Z,4080
2016-11-27T08:02:02.650Z,3944
2016-11-27T08:03:17.588Z,3744
2016-11-27T08:04:02.681Z,3652
2016-11-27T08:06:02.727Z,3292
2016-11-27T08:07:17.656Z,3196
2016-11-27T08:08:02.753Z,3212
2016-11-27T08:09:02.777Z,3296
2016-11-27T08:10:02.791Z,3476
2016-11-27T08:11:02.808Z,3524
2016-11-27T08:12:02.827Z,3860
2016-11-27T08:13:02.851Z,4144
2016-11-27T08:14:02.860Z,4408
2016-11-27T08:15:02.889Z,4684
2016-11-27T08:16:02.904Z,4900
2016-11-27T08:17:17.841Z,4964
2016-11-27T08:18:02.934Z,5044
2016-11-27T08:19:02.954Z,5060
2016-11-27T08:20:02.974Z,5056
2016-11-27T08:21:17.918Z,5088
2016-11-27T08:22:17.928Z,5100
2016-11-27T08:23:03.031Z,5104
2016-11-27T08:24:03.040Z,5100
2016-11-27T08:25:03.062Z,5068
2016-11-27T08:26:03.083Z,5052
2016-11-27T08:27:03.100Z,5084
2016-11-27T08:28:03.122Z,5112
2016-11-27T08:31:03.175Z,5156
2016-11-27T08:32:03.184Z,5180
2016-11-27T08:33:03.208Z,5200
2016-11-27T08:34:03.232Z,5196
2016-11-27T08:35:03.242Z,5156
2016-11-27T08:36:18.189Z,5040
2016-11-27T08:37:18.205Z,5212
2016-11-27T08:38:03.298Z,5240
2016-11-27T08:40:03.337Z,5264
2016-11-27T08:41:03.354Z,5192
2016-11-27T08:42:03.378Z,5228
2016-11-27T08:43:03.440Z,5180
2016-11-27T08:44:03.407Z,5000
2016-11-27T08:45:03.434Z,5084
2016-11-27T08:46:03.446Z,5256
2016-11-27T08:47:03.462Z,5244
2016-11-27T08:48:18.458Z,5232
2016-11-27T08:50:03.523Z,5336
2016-11-27T08:51:03.534Z,5360
2016-11-27T08:52:03.608Z,5268
2016-11-27T08:53:18.503Z,5348
2016-11-27T08:56:03.633Z,5156
2016-11-27T08:57:03.656Z,5384
2016-11-27T08:58:03.667Z,5436
2016-11-27T08:59:18.620Z,5408
2016-11-27T09:00:03.711Z,5420
2016-11-27T09:01:03.723Z,5432
2016-11-27T09:02:03.752Z,5464
2016-11-27T09:03:03.761Z,5560
2016-11-27T09:04:03.845Z,5592
2016-11-27T09:05:03.800Z,5780
2016-11-27T09:06:03.819Z,5924
2016-11-27T09:07:03.839Z,3848
2016-11-27T09:08:03.856Z,5684
2016-11-27T09:09:18.800Z,5828
2016-11-27T09:10:04.202Z,4480
2016-11-27T09:11:03.915Z,5908
2016-11-27T09:12:03.931Z,5924
2016-11-27T09:13:03.953Z,4508
2016-11-27T09:14:18.884Z,5500
2016-11-27T09:15:04.288Z,5936
2016-11-27T09:17:04.055Z,5904
2016-11-27T09:19:04.066Z,4872
2016-11-27T09:20:04.091Z,6168
2016-11-27T09:21:04.096Z,5884
2016-11-27T09:22:04.120Z,4332
2016-11-27T09:23:04.139Z,3696
2016-11-27T09:24:04.151Z,5608
2016-11-27T09:25:19.103Z,5792
2016-11-27T09:26:04.231Z,5432
2016-11-27T09:27:19.136Z,5364
2016-11-27T09:29:04.251Z,5764
2016-11-27T09:30:04.269Z,6308
2016-11-27T09:31:04.290Z,6088
2016-11-27T09:34:04.347Z,5804
2016-11-27T09:35:04.364Z,4104
2016-11-27T09:36:04.377Z,4908
2016-11-27T09:37:04.405Z,5916
2016-11-27T09:39:04.438Z,5628
2016-11-27T09:40:19.378Z,5596
2016-11-27T09:41:19.402Z,5528
2016-11-27T09:42:04.495Z,5336
2016-11-27T09:43:04.519Z,4832
2016-11-27T09:44:04.542Z,5548
2016-11-27T09:45:04.554Z,5688
2016-11-27T09:46:04.575Z,5472
2016-11-27T09:47:04.590Z,5712
2016-11-27T09:48:04.612Z,5400
2016-11-27T09:50:04.648Z,5452
2016-11-27T09:51:04.671Z,5296
2016-11-27T09:52:04.697Z,5000
2016-11-27T09:53:19.630Z,4908
2016-11-27T09:54:04.724Z,4976
2016-11-27T09:55:04.745Z,4788
2016-11-27T09:56:04.763Z,4804
2016-11-27T09:57:04.779Z,3836
2016-11-27T09:58:04.798Z,4756
2016-11-27T09:59:04.818Z,4764
2016-11-27T10:00:04.835Z,5580
2016-11-27T10:01:04.856Z,4544
2016-11-27T10:02:04.879Z,4304
2016-11-27T10:03:04.899Z,3596
2016-11-27T10:04:04.940Z,4484
2016-11-27T10:05:04.931Z,3756
2016-11-27T10:07:04.978Z,4248
2016-11-27T10:08:04.991Z,4140
2016-11-27T10:09:19.939Z,4204
2016-11-27T10:10:19.952Z,3772
2016-11-27T10:11:05.044Z,4256
2016-11-27T10:12:19.987Z,4252
2016-11-27T10:13:20.007Z,4692
2016-11-27T10:14:05.101Z,4692
2016-11-27T10:15:20.043Z,4016
2016-11-27T10:16:20.060Z,3808
2016-11-27T10:18:05.183Z,4276
2016-11-27T10:19:05.251Z,4048
2016-11-27T10:20:05.218Z,3768
2016-11-27T10:21:05.239Z,3728
2016-11-27T10:22:20.186Z,3804
2016-11-27T10:23:05.281Z,4216
2016-11-27T10:24:05.292Z,3996
2016-11-27T10:27:05.355Z,3276
2016-11-27T10:28:20.296Z,3516
2016-11-27T10:29:05.702Z,4512
2016-11-27T10:30:20.328Z,4680
2016-11-27T10:31:05.426Z,3996
2016-11-27T10:32:05.453Z,4156
2016-11-27T10:33:05.781Z,4316
2016-11-27T10:34:05.487Z,4348
2016-11-27T10:35:05.501Z,4704
2016-11-27T10:36:05.537Z,4432
2016-11-27T10:37:20.488Z,5072
2016-11-27T10:39:05.681Z,4216
2016-11-27T10:40:05.603Z,4120
2016-11-27T10:41:05.624Z,5448
2016-11-27T10:42:20.560Z,4676
2016-11-27T10:43:05.700Z,4508
2016-11-27T10:44:20.598Z,3956
2016-11-27T10:45:20.615Z,3832
2016-11-27T10:46:05.711Z,4344
2016-11-27T10:47:05.742Z,4656
2016-11-27T10:48:05.756Z,5120
2016-11-27T10:49:05.785Z,5168
2016-11-27T10:50:05.794Z,4432
2016-11-27T10:51:05.813Z,4936
2016-11-27T10:53:05.866Z,4908
2016-11-27T10:54:05.865Z,4632
2016-11-27T10:55:05.943Z,5072
2016-11-27T10:56:05.912Z,4884
2016-11-27T10:57:05.927Z,4400
2016-11-27T10:58:05.941Z,4036
2016-11-27T10:59:05.965Z,3700
2016-11-27T11:00:20.906Z,3520
2016-11-27T11:01:06.014Z,3848
2016-11-27T11:02:06.022Z,4456
2016-11-27T11:03:06.049Z,4908
2016-11-27T11:04:06.062Z,4156
2016-11-27T11:05:06.095Z,3756
2016-11-27T11:06:06.104Z,4332
2016-11-27T11:07:21.199Z,4456
2016-11-27T11:08:06.148Z,4456
2016-11-27T11:09:06.166Z,4620
2016-11-27T11:10:06.180Z,4228
2016-11-27T11:11:06.201Z,4000
2016-11-27T11:12:06.228Z,3988
2016-11-27T11:13:21.164Z,3936
2016-11-27T11:15:21.199Z,4480
2016-11-27T11:16:21.217Z,4468
2016-11-27T11:17:21.240Z,4464
2016-11-27T11:19:06.354Z,4280
2016-11-27T11:20:06.423Z,4404
2016-11-27T11:21:06.393Z,4004
2016-11-27T11:22:06.424Z,4220
2016-11-27T11:23:06.440Z,4404
2016-11-27T11:24:06.453Z,4500
2016-11-27T11:25:06.474Z,4944
2016-11-27T11:26:06.491Z,4440
2016-11-27T11:27:06.561Z,4080
2016-11-27T11:28:21.460Z,4180
2016-11-27T11:29:06.563Z,3800
2016-11-27T11:30:06.581Z,3712
2016-11-27T11:31:06.601Z,3748
2016-11-27T11:32:06.619Z,4148
2016-11-27T11:33:06.633Z,3512
2016-11-27T11:34:06.655Z,4016
2016-11-27T11:35:06.676Z,3096
2016-11-27T11:36:06.724Z,3996
2016-11-27T11:37:06.711Z,3292
2016-11-27T11:38:06.738Z,3900
2016-11-27T11:39:06.751Z,2684
2016-11-27T11:40:06.769Z,2828
2016-11-27T11:41:06.795Z,3492
2016-11-27T11:42:06.811Z,3664
2016-11-27T11:43:06.834Z,3608
2016-11-27T11:44:07.145Z,3604
2016-11-27T11:45:07.189Z,3620
2016-11-27T11:46:06.889Z,3552
2016-11-27T11:47:21.831Z,3348
2016-11-27T11:48:06.929Z,3532
2016-11-27T11:49:21.863Z,3520
2016-11-27T11:50:06.963Z,3548
2016-11-27T11:52:06.995Z,3680
2016-11-27T11:53:07.029Z,4040
2016-11-27T11:54:07.044Z,4036
2016-11-27T11:55:21.993Z,3920
2016-11-27T11:56:07.083Z,4144
2016-11-27T11:58:22.046Z,4512
2016-11-27T11:59:07.136Z,4356
2016-11-27T12:00:07.158Z,4476
2016-11-27T12:01:07.478Z,4748
2016-11-27T12:02:07.499Z,5132
2016-11-27T12:03:22.139Z,5096
2016-11-27T12:04:07.241Z,5044
2016-11-27T12:05:07.266Z,3884
2016-11-27T12:06:07.586Z,3652
2016-11-27T12:07:07.296Z,4692
2016-11-27T12:08:07.308Z,4904
2016-11-27T12:09:07.334Z,3800
2016-11-27T12:10:07.360Z,4488
2016-11-27T12:12:07.394Z,3252
2016-11-27T12:13:07.413Z,3372
2016-11-27T12:14:07.429Z,3396
2016-11-27T12:15:07.455Z,3052
2016-11-27T12:16:07.476Z,2872
2016-11-27T12:17:07.493Z,2788
2016-11-27T12:18:07.518Z,2896
2016-11-27T12:19:22.453Z,3204
2016-11-27T12:20:07.551Z,3048
2016-11-27T12:22:22.509Z,2768
2016-11-27T12:23:07.612Z,2936
2016-11-27T12:24:07.625Z,2808
2016-11-27T12:25:07.642Z,2620
2016-11-27T12:26:07.667Z,3124
2016-11-27T12:27:07.685Z,2860
2016-11-27T12:28:07.713Z,2624
2016-11-27T12:29:07.723Z,2488
2016-11-27T12:30:07.745Z,3512
2016-11-27T12:31:07.773Z,3956
2016-11-27T12:32:22.708Z,2712
2016-11-27T12:33:07.808Z,2624
2016-11-27T12:34:07.818Z,2680
2016-11-27T12:35:22.765Z,2924
2016-11-27T12:36:07.861Z,3260
2016-11-27T12:37:07.920Z,3136
2016-11-27T12:38:07.904Z,3476
2016-11-27T12:39:07.936Z,4116
2016-11-27T12:40:07.937Z,4204
2016-11-27T12:42:07.989Z,3056
2016-11-27T12:43:08.001Z,3076
2016-11-27T12:44:08.017Z,3040
2016-11-27T12:45:22.965Z,3472
2016-11-27T12:46:08.357Z,2752
2016-11-27T12:47:08.082Z,3768
2016-11-27T12:48:08.094Z,3488
2016-11-27T12:49:08.153Z,2460
2016-11-27T12:50:23.057Z,2688
2016-11-27T12:51:23.080Z,2576
2016-11-27T12:52:08.180Z,2564
2016-11-27T12:53:08.195Z,2464
2016-11-27T12:55:08.238Z,2420
2016-11-27T12:56:08.250Z,2888
2016-11-27T12:57:08.279Z,2268
2016-11-27T12:58:08.289Z,2312
2016-11-27T12:59:08.306Z,2340
2016-11-27T13:01:08.364Z,3468
2016-11-27T13:02:08.377Z,2476
2016-11-27T13:03:08.384Z,2384
2016-11-27T13:05:08.428Z,2504
2016-11-27T13:06:08.442Z,2380
2016-11-27T13:07:08.466Z,2344
2016-11-27T13:08:08.493Z,2340
2016-11-27T13:09:08.510Z,2400
2016-11-27T13:10:08.524Z,3672
2016-11-27T13:11:08.542Z,2684
2016-11-27T13:12:08.556Z,2324
2016-11-27T13:13:23.563Z,3112
2016-11-27T13:15:08.619Z,3508
2016-11-27T13:16:08.642Z,2464
2016-11-27T13:17:08.660Z,2448
2016-11-27T13:18:08.680Z,3368
2016-11-27T13:19:08.704Z,3612
2016-11-27T13:20:08.722Z,3068
2016-11-27T13:21:08.738Z,3500
2016-11-27T13:23:08.793Z,3324
2016-11-27T13:24:08.814Z,3336
2016-11-27T13:25:08.815Z,3232
2016-11-27T13:26:08.835Z,3164
2016-11-27T13:27:08.866Z,3060
2016-11-27T13:28:08.872Z,3068
2016-11-27T13:29:08.894Z,2996
2016-11-27T13:30:08.915Z,2944
2016-11-27T13:32:08.945Z,2856
2016-11-27T13:33:23.896Z,2120
2016-11-27T13:35:09.006Z,1952
2016-11-27T13:36:09.025Z,2812
2016-11-27T13:37:23.967Z,2284
2016-11-27T13:38:23.993Z,2580
2016-11-27T13:39:09.086Z,2072
2016-11-27T13:40:09.100Z,2428
2016-11-27T13:41:09.124Z,2180
2016-11-27T13:42:09.451Z,2788
2016-11-27T13:43:09.167Z,2508
2016-11-27T13:44:09.172Z,2624
2016-11-27T13:45:09.203Z,3180
2016-11-27T13:46:09.219Z,3380
2016-11-27T13:47:09.271Z,3284
2016-11-27T13:49:09.284Z,3076
2016-11-27T13:51:24.242Z,2916
2016-11-27T13:52:24.257Z,2368
2016-11-27T13:53:09.360Z,2244
2016-11-27T13:54:24.297Z,2236
2016-11-27T13:55:24.313Z,2172
2016-11-27T13:56:09.414Z,2040
2016-11-27T13:57:09.431Z,2168
2016-11-27T13:58:09.455Z,2300
2016-11-27T13:59:09.468Z,2160
2016-11-27T14:01:09.809Z,2008
2016-11-27T14:02:09.528Z,1944
2016-11-27T14:03:09.593Z,1848
2016-11-27T14:04:09.567Z,1752
2016-11-27T14:05:09.604Z,1612
2016-11-27T14:06:09.603Z,1544
2016-11-27T14:07:09.624Z,1532
2016-11-27T14:08:09.646Z,1612
2016-11-27T14:09:09.668Z,1608
2016-11-27T14:10:24.607Z,1496
2016-11-27T14:11:09.709Z,1504
2016-11-27T14:12:09.720Z,1516
2016-11-27T14:13:09.737Z,1412
2016-11-27T14:14:09.753Z,1372
2016-11-27T14:15:09.782Z,1352
2016-11-27T14:16:09.794Z,1320
2016-11-27T14:17:09.816Z,1296
2016-11-27T14:18:09.837Z,1272
2016-11-27T14:19:10.175Z,1252
2016-11-27T14:20:09.866Z,1224
2016-11-27T14:21:09.892Z,1200
2016-11-27T14:22:09.917Z,1188
2016-11-27T14:23:09.937Z,1172
2016-11-27T14:24:10.001Z,1156
2016-11-27T14:25:24.886Z,1112
2016-11-27T14:26:10.024Z,1088
2016-11-27T14:27:24.923Z,1048
2016-11-27T14:28:10.023Z,1032
2016-11-27T14:29:10.043Z,1004
2016-11-27T14:30:10.071Z,976
2016-11-27T14:31:10.072Z,940
2016-11-27T14:32:10.094Z,904
2016-11-27T14:33:10.108Z,876
2016-11-27T14:34:10.134Z,848
2016-11-27T14:35:10.155Z,824
2016-11-27T14:36:10.177Z,796
2016-11-27T14:37:10.189Z,768
2016-11-27T14:38:10.215Z,736
2016-11-27T14:39:10.228Z,704
2016-11-27T14:40:10.247Z,676
2016-11-27T14:41:10.265Z,644
2016-11-27T14:42:10.286Z,608
2016-11-27T14:43:10.309Z,576
2016-11-27T14:44:10.321Z,548
2016-11-27T14:45:10.339Z,520
2016-11-27T14:46:10.354Z,488
2016-11-27T14:47:10.384Z,464
2016-11-27T14:48:10.391Z,436
2016-11-27T14:50:10.429Z,380
2016-11-27T14:51:10.455Z,352
2016-11-27T14:52:10.481Z,324
2016-11-27T14:53:10.489Z,296
2016-11-27T14:54:10.503Z,260
2016-11-27T14:55:10.533Z,232
2016-11-27T14:56:10.548Z,208
2016-11-27T14:57:25.485Z,188
2016-11-27T14:58:10.589Z,180
2016-11-27T14:59:25.521Z,160
2016-11-27T15:00:10.619Z,148
2016-11-27T15:02:10.662Z,124
2016-11-27T15:03:10.675Z,108
2016-11-27T15:04:10.696Z,100
2016-11-27T15:05:10.711Z,88
2016-11-27T15:06:10.722Z,76
2016-11-27T15:07:10.749Z,68
2016-11-27T15:08:10.766Z,60
2016-11-27T15:10:10.838Z,48
2016-11-27T15:11:10.821Z,40